Time;durP1;ratioP1;P1;durP2;ratioP2;P2;SDS_P1;SDS_P2;PMS_P1;PMS_P2;Temp;Humidity;BMP_temperature;BMP_pressure;BME280_temperature;BME280_humidity;BME280_pressure;Samples;Min_cycle;Max_cycle;Signal;HPM_P1;HPM_P2
2024/01/09 00:02:21;;;;;;;9.65;8.65;;;-4.90;99.90;;;;;;5051331;28;20241;-64
2024/01/09 00:04:48;;;;;;;12.10;7.45;;;-4.90;99.90;;;;;;5051662;28;20290;-64
2024/01/09 00:07:15;;;;;;;14.27;8.82;;;-4.90;99.90;;;;;;5051438;28;20226;-62
2024/01/09 00:09:42;;;;;;;12.80;9.07;;;-4.90;99.90;;;;;;5051419;28;20687;-63
2024/01/09 00:12:09;;;;;;;10.57;7.50;;;-4.90;99.90;;;;;;5051519;28;20202;-64
2024/01/09 00:14:36;;;;;;;9.90;7.30;;;-4.90;99.90;;;;;;5051271;28;20214;-63
2024/01/09 00:17:03;;;;;;;10.85;8.60;;;-4.90;99.90;;;;;;5043775;28;20229;-63
2024/01/09 00:19:33;;;;;;;8.82;6.45;;;-4.90;99.90;;;;;;5051175;28;20289;-63
2024/01/09 00:22:02;;;;;;;7.90;6.20;;;-4.90;99.90;;;;;;5050542;28;20198;-63
2024/01/09 00:24:29;;;;;;;18.13;7.20;;;-4.90;99.90;;;;;;5050858;28;20226;-64
2024/01/09 00:26:56;;;;;;;7.75;6.53;;;-4.90;99.90;;;;;;5050299;28;20229;-63
2024/01/09 00:29:23;;;;;;;14.10;7.57;;;-4.90;99.90;;;;;;5050892;28;20294;-63
2024/01/09 00:31:49;;;;;;;9.98;7.65;;;-4.90;99.90;;;;;;5051041;28;20293;-63
2024/01/09 00:34:16;;;;;;;8.93;7.75;;;-4.90;99.90;;;;;;5051004;28;20587;-63
2024/01/09 00:36:45;;;;;;;13.27;8.48;;;-4.90;99.90;;;;;;5050924;28;20202;-63
2024/01/09 00:39:12;;;;;;;11.85;8.00;;;-4.90;99.90;;;;;;5050120;28;20659;-63
2024/01/09 00:41:39;;;;;;;8.55;7.47;;;-4.90;99.90;;;;;;5050754;28;20217;-63
2024/01/09 00:44:06;;;;;;;9.60;7.97;;;-4.90;99.90;;;;;;5050623;28;20309;-63
2024/01/09 00:46:33;;;;;;;15.40;7.75;;;-4.90;99.90;;;;;;5050891;28;20233;-63
2024/01/09 00:49:00;;;;;;;7.90;7.20;;;-4.90;99.90;;;;;;5050547;28;20240;-63
2024/01/09 00:51:26;;;;;;;9.95;7.57;;;-4.90;99.90;;;;;;5050863;28;20647;-63
2024/01/09 00:53:56;;;;;;;10.50;6.57;;;-4.90;99.90;;;;;;5049502;28;20246;-64
2024/01/09 00:56:23;;;;;;;13.43;7.53;;;-4.90;99.90;;;;;;5050785;28;20203;-63
2024/01/09 00:58:50;;;;;;;9.20;7.22;;;-4.90;99.90;;;;;;5050507;28;20234;-63
2024/01/09 01:01:16;;;;;;;11.05;6.97;;;-4.90;99.90;;;;;;5049540;28;20293;-64
2024/01/09 01:03:44;;;;;;;8.50;7.72;;;-4.90;99.90;;;;;;5050672;28;20691;-63
2024/01/09 01:06:10;;;;;;;9.25;7.68;;;-5.00;99.90;;;;;;5050988;28;20309;-64
2024/01/09 01:08:38;;;;;;;8.73;7.43;;;-5.00;99.90;;;;;;5050660;28;20313;-63
2024/01/09 01:11:06;;;;;;;10.65;7.13;;;-5.00;99.90;;;;;;5050459;28;20207;-63
2024/01/09 01:13:33;;;;;;;8.45;6.00;;;-4.90;99.90;;;;;;5050474;28;20719;-63
2024/01/09 01:16:00;;;;;;;9.80;7.82;;;-5.00;99.90;;;;;;5043164;28;20209;-64
2024/01/09 01:18:27;;;;;;;7.25;6.22;;;-4.90;99.90;;;;;;5072106;22;20248;-61
2024/01/09 01:20:54;;;;;;;10.77;7.80;;;-5.00;99.90;;;;;;5051878;28;20210;-61
2024/01/09 01:23:21;;;;;;;10.55;7.00;;;-5.00;99.90;;;;;;5061117;28;20206;-61
2024/01/09 01:25:47;;;;;;;7.68;6.22;;;-5.00;99.90;;;;;;5054017;28;20712;-62
2024/01/09 01:28:15;;;;;;;8.77;6.78;;;-5.00;99.90;;;;;;5064494;28;20223;-61
2024/01/09 01:30:42;;;;;;;8.95;6.20;;;-5.00;99.90;;;;;;5065874;28;20211;-62
2024/01/09 01:33:10;;;;;;;10.65;7.60;;;-5.00;99.90;;;;;;5050979;28;20305;-61
2024/01/09 01:35:36;;;;;;;10.25;7.65;;;-5.00;99.90;;;;;;5051323;28;20207;-61
2024/01/09 01:38:03;;;;;;;10.77;6.90;;;-5.00;99.90;;;;;;5060063;28;20669;-60
2024/01/09 01:40:30;;;;;;;7.72;5.72;;;-4.90;99.90;;;;;;5054648;28;20667;-61
2024/01/09 01:42:58;;;;;;;8.95;7.15;;;-5.00;99.80;;;;;;5067619;28;20648;-61
2024/01/09 01:45:26;;;;;;;9.07;6.60;;;-5.00;99.90;;;;;;5054507;28;20293;-62
2024/01/09 01:47:53;;;;;;;10.50;8.05;;;-5.00;99.90;;;;;;5068917;28;20226;-60
2024/01/09 01:50:21;;;;;;;9.70;6.68;;;-5.00;99.90;;;;;;5066124;28;20206;-62
2024/01/09 01:52:49;;;;;;;12.00;7.43;;;-5.00;99.90;;;;;;5067010;28;20207;-61
2024/01/09 01:55:20;;;;;;;8.63;6.55;;;-5.00;99.90;;;;;;5059438;28;20210;-60
2024/01/09 01:57:50;;;;;;;9.93;7.38;;;-5.10;99.90;;;;;;5057784;28;20226;-61
2024/01/09 02:00:18;;;;;;;6.45;5.65;;;-5.00;99.90;;;;;;5069874;28;20293;-62
2024/01/09 02:02:49;;;;;;;10.20;7.15;;;-5.10;99.90;;;;;;5062943;28;20264;-61
2024/01/09 02:05:17;;;;;;;7.05;6.07;;;-5.10;99.90;;;;;;5054111;28;20289;-61
2024/01/09 02:07:46;;;;;;;6.68;5.60;;;-5.10;99.90;;;;;;5055611;28;20234;-61
2024/01/09 02:10:13;;;;;;;13.07;7.70;;;-5.10;99.90;;;;;;5066790;28;20673;-61
2024/01/09 02:12:40;;;;;;;12.48;6.25;;;-5.10;99.90;;;;;;5070473;28;20298;-60
2024/01/09 02:15:08;;;;;;;6.75;5.47;;;-5.10;99.90;;;;;;5056700;28;20291;-61
2024/01/09 02:17:36;;;;;;;7.95;6.22;;;-5.10;99.90;;;;;;5062282;28;20237;-62
2024/01/09 02:20:07;;;;;;;10.32;6.53;;;-5.10;99.30;;;;;;5067443;28;20284;-62
2024/01/09 02:22:33;;;;;;;11.10;7.00;;;-5.00;99.90;;;;;;5062148;28;20213;-61
2024/01/09 02:25:00;;;;;;;12.55;7.65;;;-5.10;99.90;;;;;;5056711;28;20208;-61
2024/01/09 02:27:34;;;;;;;7.75;6.00;;;-5.10;99.90;;;;;;5068948;28;20225;-61
2024/01/09 02:30:02;;;;;;;7.28;5.93;;;-5.10;99.90;;;;;;5054603;28;20221;-62
2024/01/09 02:32:30;;;;;;;9.15;6.30;;;-5.10;99.90;;;;;;5060118;28;20206;-62
2024/01/09 02:34:57;;;;;;;10.65;6.80;;;-5.10;99.90;;;;;;5057146;28;20197;-61
2024/01/09 02:37:23;;;;;;;12.95;7.72;;;-5.10;99.90;;;;;;5065966;28;20221;-60
2024/01/09 02:39:50;;;;;;;10.32;6.68;;;-5.20;99.90;;;;;;5053704;28;20558;-61
2024/01/09 02:42:17;;;;;;;9.10;6.80;;;-5.10;99.90;;;;;;5067447;28;20284;-62
2024/01/09 02:44:44;;;;;;;7.88;5.88;;;-5.10;99.90;;;;;;5065201;28;20237;-62
2024/01/09 02:47:12;;;;;;;7.78;6.75;;;-5.10;99.90;;;;;;5071145;28;20217;-61
2024/01/09 02:49:39;;;;;;;7.88;6.70;;;-5.10;99.90;;;;;;5062056;28;20714;-61
2024/01/09 02:52:06;;;;;;;13.05;7.32;;;-5.10;99.90;;;;;;5069164;28;20292;-61
2024/01/09 02:54:33;;;;;;;10.02;7.93;;;-5.10;99.90;;;;;;5069339;28;20289;-61
2024/01/09 02:57:00;;;;;;;7.35;6.53;;;-5.10;99.90;;;;;;5067102;28;20198;-61
2024/01/09 02:59:26;;;;;;;6.72;6.13;;;-5.10;99.90;;;;;;5053011;28;20229;-60
2024/01/09 03:01:53;;;;;;;7.05;6.00;;;-5.10;99.90;;;;;;5053037;28;20210;-61
2024/01/09 03:04:22;;;;;;;7.88;5.25;;;-5.10;99.90;;;;;;5053785;28;20595;-60
2024/01/09 03:06:49;;;;;;;8.75;6.15;;;-5.10;99.90;;;;;;5064280;28;20711;-61
2024/01/09 03:09:16;;;;;;;12.85;6.80;;;-5.20;99.90;;;;;;5068394;28;20599;-61
2024/01/09 03:11:44;;;;;;;10.07;8.00;;;-5.20;99.90;;;;;;5055487;28;20297;-61
2024/01/09 03:14:10;;;;;;;9.15;5.85;;;-5.20;99.90;;;;;;5052415;28;20198;-60
2024/01/09 03:16:37;;;;;;;7.68;6.72;;;-5.20;99.90;;;;;;5053392;28;20199;-59
2024/01/09 03:19:04;;;;;;;9.90;6.75;;;-5.20;99.90;;;;;;5053179;28;20237;-62
2024/01/09 03:21:32;;;;;;;10.85;6.43;;;-5.20;99.90;;;;;;5053667;28;20213;-61
2024/01/09 03:23:59;;;;;;;10.95;6.82;;;-5.20;99.90;;;;;;5053681;28;20332;-61
2024/01/09 03:26:26;;;;;;;12.32;7.68;;;-5.20;99.90;;;;;;5053327;28;20237;-60
2024/01/09 03:28:53;;;;;;;8.65;5.95;;;-5.20;99.90;;;;;;5053314;28;20231;-61
2024/01/09 03:31:20;;;;;;;8.05;7.25;;;-5.10;99.90;;;;;;5053052;28;20312;-60
2024/01/09 03:33:47;;;;;;;15.15;6.55;;;-5.20;99.90;;;;;;5052958;28;20216;-60
2024/01/09 03:36:14;;;;;;;13.13;7.38;;;-5.20;99.90;;;;;;5052987;28;20301;-61
2024/01/09 03:38:43;;;;;;;8.07;6.75;;;-5.20;99.90;;;;;;5053075;28;20222;-62
2024/01/09 03:41:10;;;;;;;9.32;5.72;;;-5.20;99.90;;;;;;5052782;28;20292;-61
2024/01/09 03:43:37;;;;;;;10.05;6.47;;;-5.20;99.90;;;;;;5053068;28;20209;-62
2024/01/09 03:46:04;;;;;;;10.68;6.93;;;-5.20;99.90;;;;;;5052879;28;20213;-61
2024/01/09 03:48:31;;;;;;;9.23;7.35;;;-5.20;99.90;;;;;;5052481;28;20585;-62
2024/01/09 03:50:58;;;;;;;11.32;6.60;;;-5.20;99.90;;;;;;5051717;28;20206;-60
2024/01/09 03:53:24;;;;;;;8.93;6.97;;;-5.20;99.90;;;;;;5052679;28;20198;-62
2024/01/09 03:55:53;;;;;;;10.43;7.30;;;-5.20;99.90;;;;;;5051514;28;20218;-61
2024/01/09 03:58:20;;;;;;;10.23;7.15;;;-5.20;99.90;;;;;;5052488;28;20218;-62
2024/01/09 04:00:47;;;;;;;6.85;6.18;;;-5.10;99.90;;;;;;5050318;28;20619;-60
2024/01/09 04:03:14;;;;;;;7.32;6.07;;;-5.20;99.90;;;;;;5053727;28;20654;-61
2024/01/09 04:05:40;;;;;;;7.03;6.35;;;-5.20;99.90;;;;;;5060073;28;20580;-60
2024/01/09 04:08:07;;;;;;;13.57;8.02;;;-5.20;99.50;;;;;;5051453;28;20223;-62
2024/01/09 04:10:34;;;;;;;14.55;8.07;;;-5.20;99.90;;;;;;5052097;28;20621;-60
2024/01/09 04:13:04;;;;;;;13.05;7.15;;;-5.20;99.90;;;;;;5063008;28;20202;-60
2024/01/09 04:15:32;;;;;;;7.50;6.68;;;-5.20;99.60;;;;;;5051902;28;20294;-61
2024/01/09 04:17:58;;;;;;;7.53;6.70;;;-5.20;99.40;;;;;;5050769;28;20226;-62
2024/01/09 04:20:25;;;;;;;9.60;6.97;;;-5.20;99.60;;;;;;5051610;28;20224;-61
2024/01/09 04:22:52;;;;;;;6.75;6.07;;;-5.20;99.60;;;;;;5061281;28;20214;-61
2024/01/09 04:25:19;;;;;;;8.00;6.20;;;-5.20;99.60;;;;;;5056234;28;20205;-61
2024/01/09 04:27:46;;;;;;;10.20;7.18;;;-5.20;99.80;;;;;;5050147;28;20248;-60
2024/01/09 04:30:14;;;;;;;7.68;6.75;;;-5.30;99.40;;;;;;5050153;28;20740;-59
2024/01/09 04:32:41;;;;;;;10.55;7.07;;;-5.30;99.60;;;;;;5050189;28;20747;-62
2024/01/09 04:35:08;;;;;;;9.38;6.68;;;-5.30;99.90;;;;;;5050345;28;20208;-61
2024/01/09 04:37:34;;;;;;;8.15;7.05;;;-5.30;99.90;;;;;;5049923;28;20233;-60
2024/01/09 04:40:01;;;;;;;11.20;6.75;;;-5.30;99.90;;;;;;5050688;28;20208;-61
2024/01/09 04:42:28;;;;;;;13.07;7.60;;;-5.30;99.60;;;;;;5052195;28;20206;-61
2024/01/09 04:44:55;;;;;;;9.48;6.25;;;-5.30;99.80;;;;;;5051928;28;20297;-62
2024/01/09 04:47:23;;;;;;;9.20;7.78;;;-5.30;99.60;;;;;;5051532;28;20225;-61
2024/01/09 04:49:50;;;;;;;9.73;6.85;;;-5.30;99.70;;;;;;5051544;28;20240;-61
2024/01/09 04:52:17;;;;;;;8.45;7.22;;;-5.30;99.80;;;;;;5051559;28;20199;-61
2024/01/09 04:54:44;;;;;;;10.45;8.75;;;-5.30;99.20;;;;;;5051312;28;20209;-61
2024/01/09 04:57:10;;;;;;;8.07;6.95;;;-5.30;99.30;;;;;;5051667;28;20234;-62
2024/01/09 04:59:37;;;;;;;10.38;7.30;;;-5.30;98.90;;;;;;5051368;28;20748;-61
2024/01/09 05:02:04;;;;;;;7.05;6.15;;;-5.30;99.20;;;;;;5051811;28;20708;-61
2024/01/09 05:04:33;;;;;;;12.30;7.30;;;-5.30;99.00;;;;;;5051619;28;20208;-61
2024/01/09 05:06:59;;;;;;;7.03;5.50;;;-5.30;99.30;;;;;;5051371;28;20735;-62
2024/01/09 05:09:28;;;;;;;12.98;8.45;;;-5.30;99.10;;;;;;5051374;28;20232;-61
2024/01/09 05:11:55;;;;;;;7.63;6.80;;;-5.30;98.90;;;;;;5052506;28;20672;-61
2024/01/09 05:14:22;;;;;;;8.23;6.07;;;-5.30;99.10;;;;;;5055596;28;20210;-59
2024/01/09 05:16:48;;;;;;;7.78;6.65;;;-5.30;99.00;;;;;;5055725;28;20229;-61
2024/01/09 05:19:15;;;;;;;8.07;6.93;;;-5.30;99.00;;;;;;5055283;28;20237;-62
2024/01/09 05:21:43;;;;;;;8.30;7.25;;;-5.30;99.20;;;;;;5055939;28;20213;-61
2024/01/09 05:24:10;;;;;;;8.48;5.70;;;-5.30;99.40;;;;;;5055750;28;20740;-62
2024/01/09 05:26:39;;;;;;;13.63;7.05;;;-5.30;99.60;;;;;;5055310;28;20217;-61
2024/01/09 05:29:06;;;;;;;8.75;7.63;;;-5.40;99.40;;;;;;5055177;28;20677;-60
2024/01/09 05:31:33;;;;;;;12.57;6.78;;;-5.30;99.40;;;;;;5055340;28;20212;-61
2024/01/09 05:34:00;;;;;;;11.32;7.45;;;-5.30;99.30;;;;;;5055515;28;20686;-61
2024/01/09 05:36:27;;;;;;;6.75;6.13;;;-5.30;99.90;;;;;;5055326;28;20207;-62
2024/01/09 05:38:55;;;;;;;10.10;6.95;;;-5.40;99.70;;;;;;5054866;28;20226;-61
2024/01/09 05:41:22;;;;;;;5.70;4.93;;;-5.40;99.80;;;;;;5054918;28;20205;-61
2024/01/09 05:43:49;;;;;;;10.07;5.18;;;-5.40;99.90;;;;;;5055281;28;20206;-61
2024/01/09 05:46:17;;;;;;;7.80;7.03;;;-5.40;99.90;;;;;;5055100;28;20206;-61
2024/01/09 05:48:44;;;;;;;7.47;6.32;;;-5.40;99.90;;;;;;5055367;28;20241;-62
2024/01/09 05:51:11;;;;;;;10.70;6.85;;;-5.50;99.90;;;;;;5054971;28;20234;-62
2024/01/09 05:53:38;;;;;;;9.65;6.93;;;-5.50;99.90;;;;;;5054997;28;20293;-61
2024/01/09 05:56:07;;;;;;;7.28;5.68;;;-5.50;99.90;;;;;;5055021;28;20206;-62
2024/01/09 05:58:34;;;;;;;8.02;5.78;;;-5.60;99.90;;;;;;5054605;28;20229;-61
2024/01/09 06:01:01;;;;;;;7.30;6.32;;;-5.60;99.90;;;;;;5054855;28;20205;-62
2024/01/09 06:03:28;;;;;;;8.32;7.47;;;-5.60;99.90;;;;;;5055056;28;20216;-62
2024/01/09 06:05:56;;;;;;;8.25;6.13;;;-5.70;99.90;;;;;;5054761;28;20213;-61
2024/01/09 06:08:22;;;;;;;9.20;7.85;;;-5.70;99.90;;;;;;5054481;28;20230;-61
2024/01/09 06:10:49;;;;;;;7.68;6.13;;;-5.70;99.90;;;;;;5054305;28;20212;-61
2024/01/09 06:13:17;;;;;;;10.85;6.88;;;-5.70;99.90;;;;;;5054413;28;20215;-61
2024/01/09 06:15:44;;;;;;;14.50;7.45;;;-5.70;99.90;;;;;;5054542;28;20211;-60
2024/01/09 06:18:11;;;;;;;8.73;7.10;;;-5.70;99.90;;;;;;5054170;28;20236;-62
2024/01/09 06:20:38;;;;;;;8.27;7.50;;;-5.70;99.90;;;;;;5054251;28;20297;-61
2024/01/09 06:23:05;;;;;;;7.68;6.65;;;-5.70;99.90;;;;;;5054391;28;20210;-62
2024/01/09 06:25:32;;;;;;;9.35;7.57;;;-5.70;99.90;;;;;;5054108;28;20234;-62
2024/01/09 06:27:58;;;;;;;11.70;7.20;;;-5.70;99.90;;;;;;5053922;28;20239;-61
2024/01/09 06:30:27;;;;;;;10.93;7.30;;;-5.70;99.90;;;;;;5054264;28;20206;-62
2024/01/09 06:32:53;;;;;;;11.35;7.22;;;-5.70;99.90;;;;;;5054197;28;20206;-62
2024/01/09 06:35:20;;;;;;;14.27;8.57;;;-5.70;99.90;;;;;;5054058;28;20210;-61
2024/01/09 06:37:47;;;;;;;10.30;6.25;;;-5.60;99.90;;;;;;5053997;28;20597;-59
2024/01/09 06:40:14;;;;;;;13.05;7.18;;;-5.60;99.90;;;;;;5053908;28;20210;-61
2024/01/09 06:42:41;;;;;;;11.70;6.28;;;-5.60;99.70;;;;;;5054206;28;20202;-61
2024/01/09 06:45:09;;;;;;;8.73;7.03;;;-5.60;99.60;;;;;;5054040;28;20325;-62
2024/01/09 06:47:37;;;;;;;8.93;7.43;;;-5.60;99.80;;;;;;5053820;28;20236;-60
2024/01/09 06:50:04;;;;;;;14.77;6.57;;;-5.60;99.90;;;;;;5053710;28;20643;-61
2024/01/09 06:52:32;;;;;;;7.93;5.93;;;-5.60;99.40;;;;;;5053980;28;20210;-61
2024/01/09 06:54:58;;;;;;;7.15;6.30;;;-5.50;99.30;;;;;;5053695;28;20214;-61
2024/01/09 06:57:25;;;;;;;9.15;7.30;;;-5.60;99.60;;;;;;5053852;28;20202;-61
2024/01/09 06:59:52;;;;;;;7.25;6.38;;;-5.60;99.20;;;;;;5053654;28;20211;-62
2024/01/09 07:02:20;;;;;;;10.18;7.03;;;-5.60;99.60;;;;;;5053888;28;20206;-62
2024/01/09 07:04:49;;;;;;;10.70;6.53;;;-5.50;99.30;;;;;;5053520;28;20242;-61
2024/01/09 07:07:15;;;;;;;10.40;7.63;;;-5.50;99.40;;;;;;5053223;28;20206;-61
2024/01/09 07:09:42;;;;;;;8.15;6.40;;;-5.50;99.80;;;;;;5053225;28;20209;-61
2024/01/09 07:12:10;;;;;;;7.82;7.13;;;-5.60;99.90;;;;;;5053258;28;20680;-61
2024/01/09 07:14:37;;;;;;;7.38;5.60;;;-5.50;99.80;;;;;;5053573;28;20206;-61
2024/01/09 07:17:04;;;;;;;7.30;6.60;;;-5.50;99.70;;;;;;5053065;28;20213;-63
2024/01/09 07:19:31;;;;;;;7.07;6.38;;;-5.50;99.90;;;;;;5082145;22;20237;-64
2024/01/09 07:21:59;;;;;;;7.20;6.10;;;-5.50;99.70;;;;;;5072354;28;20583;-63
2024/01/09 07:24:26;;;;;;;11.82;7.85;;;-5.50;99.60;;;;;;5073064;28;20229;-64
2024/01/09 07:26:53;;;;;;;8.65;6.32;;;-5.50;99.30;;;;;;5072996;28;20208;-64
2024/01/09 07:29:20;;;;;;;11.00;7.20;;;-5.40;99.30;;;;;;5072387;28;20308;-64
2024/01/09 07:31:47;;;;;;;8.57;6.72;;;-5.40;99.00;;;;;;5072364;28;20289;-63
2024/01/09 07:34:14;;;;;;;11.05;6.40;;;-5.40;99.20;;;;;;5071950;28;20206;-64
2024/01/09 07:36:42;;;;;;;11.43;9.30;;;-5.40;99.30;;;;;;5072760;28;20213;-63
2024/01/09 07:39:12;;;;;;;13.68;7.93;;;-5.40;99.80;;;;;;5072531;28;20314;-64
2024/01/09 07:41:39;;;;;;;7.72;6.30;;;-5.40;99.60;;;;;;5072772;28;20206;-64
2024/01/09 07:44:06;;;;;;;11.07;8.90;;;-5.30;99.70;;;;;;5072784;28;20310;-63
2024/01/09 07:46:33;;;;;;;12.48;7.55;;;-5.40;99.70;;;;;;5072681;28;20210;-63
2024/01/09 07:49:00;;;;;;;8.10;7.28;;;-5.40;99.80;;;;;;5072266;28;20225;-63
2024/01/09 07:51:27;;;;;;;10.60;7.90;;;-5.40;99.90;;;;;;5072700;28;20583;-63
2024/01/09 07:53:54;;;;;;;11.73;7.68;;;-5.40;99.90;;;;;;5072589;28;20213;-64
2024/01/09 07:56:22;;;;;;;11.38;7.88;;;-5.40;99.90;;;;;;5072376;28;20221;-64
2024/01/09 07:58:49;;;;;;;9.45;7.53;;;-5.40;99.80;;;;;;5072261;28;20293;-64
2024/01/09 08:01:17;;;;;;;8.50;6.72;;;-5.40;99.60;;;;;;5072251;28;20729;-63
2024/01/09 08:03:44;;;;;;;9.27;6.10;;;-5.40;99.90;;;;;;5072026;28;20206;-64
2024/01/09 08:06:14;;;;;;;7.35;6.38;;;-5.30;99.70;;;;;;5072340;28;20317;-64
2024/01/09 08:08:41;;;;;;;10.88;7.43;;;-5.30;99.50;;;;;;5072046;28;20341;-64
2024/01/09 08:11:08;;;;;;;13.02;7.72;;;-5.30;99.00;;;;;;5072007;28;20233;-63
2024/01/09 08:13:38;;;;;;;9.05;6.03;;;-5.20;99.30;;;;;;5071772;28;20210;-64
2024/01/09 08:16:05;;;;;;;9.35;6.32;;;-5.20;99.70;;;;;;5071573;28;20204;-64
2024/01/09 08:18:33;;;;;;;8.15;5.70;;;-5.10;99.50;;;;;;5071812;28;20299;-63
2024/01/09 08:21:00;;;;;;;8.35;5.50;;;-5.10;99.10;;;;;;5071632;28;20206;-64
2024/01/09 08:23:26;;;;;;;9.15;5.65;;;-5.10;99.10;;;;;;5072110;28;20216;-64
2024/01/09 08:25:53;;;;;;;5.60;5.10;;;-5.00;99.30;;;;;;5071931;28;20206;-64
2024/01/09 08:28:20;;;;;;;11.05;7.40;;;-5.00;98.80;;;;;;5071511;28;20234;-64
2024/01/09 08:30:48;;;;;;;6.18;5.57;;;-4.90;98.40;;;;;;5071658;28;20219;-64
2024/01/09 08:33:15;;;;;;;7.28;5.28;;;-4.90;98.30;;;;;;5071833;28;20217;-63
2024/01/09 08:35:43;;;;;;;9.48;7.15;;;-4.90;98.00;;;;;;5071782;28;20205;-63
2024/01/09 08:38:11;;;;;;;7.35;5.90;;;-4.80;98.00;;;;;;5071698;28;20218;-64
2024/01/09 08:40:38;;;;;;;7.60;5.55;;;-4.80;97.40;;;;;;5071596;28;20301;-64
2024/01/09 08:43:05;;;;;;;5.70;5.15;;;-4.70;97.20;;;;;;5071678;28;20209;-64
2024/01/09 08:45:32;;;;;;;6.97;6.20;;;-4.70;97.30;;;;;;5071606;28;20228;-63
2024/01/09 08:48:01;;;;;;;10.82;7.57;;;-4.60;97.00;;;;;;5071273;28;20230;-64
2024/01/09 08:50:27;;;;;;;5.70;5.00;;;-4.60;96.70;;;;;;5070896;28;20206;-62
2024/01/09 08:52:54;;;;;;;7.40;6.65;;;-4.50;97.10;;;;;;5069172;28;20197;-63
2024/01/09 08:55:21;;;;;;;9.77;6.65;;;-4.50;96.80;;;;;;5070910;28;20329;-63
2024/01/09 08:57:49;;;;;;;10.23;6.00;;;-4.50;96.20;;;;;;5070481;28;20208;-63
2024/01/09 09:00:16;;;;;;;6.93;5.50;;;-4.50;95.80;;;;;;5071439;28;20747;-64
2024/01/09 09:02:43;;;;;;;9.95;6.75;;;-4.40;95.80;;;;;;5061759;28;20205;-63
2024/01/09 09:05:12;;;;;;;9.25;5.65;;;-4.40;95.80;;;;;;5064316;28;20233;-63
2024/01/09 09:07:39;;;;;;;8.88;5.53;;;-4.40;95.80;;;;;;5069799;28;20205;-64
2024/01/09 09:10:06;;;;;;;12.30;7.00;;;-4.30;95.40;;;;;;5070046;28;20226;-65
2024/01/09 09:12:34;;;;;;;6.43;4.85;;;-4.30;95.50;;;;;;5071027;28;20201;-64
2024/01/09 09:15:02;;;;;;;6.68;5.20;;;-4.20;96.20;;;;;;5070564;28;20213;-64
2024/01/09 09:17:30;;;;;;;6.40;5.22;;;-4.10;95.50;;;;;;5068183;28;20208;-65
2024/01/09 09:19:57;;;;;;;6.85;6.15;;;-4.10;95.10;;;;;;5069655;28;20301;-65
2024/01/09 09:22:28;;;;;;;13.80;5.97;;;-4.10;95.30;;;;;;5060621;28;20305;-63
2024/01/09 09:24:56;;;;;;;8.00;5.88;;;-4.10;94.80;;;;;;5062717;28;20217;-65
2024/01/09 09:27:23;;;;;;;5.78;4.43;;;-4.00;94.60;;;;;;5067103;28;20203;-64
2024/01/09 09:29:52;;;;;;;7.28;6.60;;;-4.00;94.80;;;;;;5069290;28;20233;-64
2024/01/09 09:32:19;;;;;;;8.73;5.38;;;-3.90;94.30;;;;;;5065670;28;20202;-64
2024/01/09 09:34:46;;;;;;;7.28;6.53;;;-3.90;94.70;;;;;;5070374;28;20259;-64
2024/01/09 09:37:12;;;;;;;7.88;5.05;;;-3.80;94.60;;;;;;5066671;28;20703;-64
2024/01/09 09:39:41;;;;;;;7.85;5.63;;;-3.90;94.40;;;;;;5068092;28;20643;-65
2024/01/09 09:42:10;;;;;;;7.78;6.97;;;-3.80;94.60;;;;;;5064762;28;20332;-64
2024/01/09 09:44:38;;;;;;;14.25;6.07;;;-3.70;94.80;;;;;;5067026;28;20205;-64
2024/01/09 09:47:07;;;;;;;5.65;5.15;;;-3.70;94.60;;;;;;5068676;28;20232;-65
2024/01/09 09:49:37;;;;;;;5.70;5.13;;;-3.60;94.40;;;;;;5067556;28;20229;-64
2024/01/09 09:52:06;;;;;;;7.05;5.50;;;-3.60;94.20;;;;;;5067934;28;20572;-64
2024/01/09 09:54:33;;;;;;;6.78;5.28;;;-3.60;93.70;;;;;;5061051;28;20202;-63
2024/01/09 09:57:01;;;;;;;12.30;6.72;;;-3.50;93.30;;;;;;5064216;28;20202;-64
2024/01/09 09:59:28;;;;;;;6.43;5.68;;;-3.50;93.10;;;;;;5066601;28;20793;-65
2024/01/09 10:01:55;;;;;;;9.63;5.88;;;-3.40;92.80;;;;;;5072466;28;20208;-64
2024/01/09 10:04:30;;;;;;;10.52;6.32;;;-3.30;92.80;;;;;;5073470;28;20206;-65
2024/01/09 10:06:58;;;;;;;7.35;5.68;;;-3.30;93.00;;;;;;5073086;28;20695;-64
2024/01/09 10:09:30;;;;;;;8.50;6.55;;;-3.20;92.80;;;;;;5072905;28;20225;-64
2024/01/09 10:11:56;;;;;;;8.88;6.85;;;-3.20;92.60;;;;;;5073502;28;20288;-64
2024/01/09 10:14:25;;;;;;;12.32;8.07;;;-3.10;92.40;;;;;;5073343;28;20208;-64
2024/01/09 10:16:53;;;;;;;7.60;4.75;;;-3.10;91.90;;;;;;5072262;28;20210;-64
2024/01/09 10:19:21;;;;;;;7.25;5.00;;;-3.00;91.90;;;;;;5072519;28;20225;-64
2024/01/09 10:21:48;;;;;;;8.25;5.28;;;-3.00;91.90;;;;;;5072286;28;20210;-64
2024/01/09 10:24:15;;;;;;;7.53;4.72;;;-2.90;91.50;;;;;;5070847;28;20202;-65
2024/01/09 10:26:42;;;;;;;5.75;5.20;;;-2.90;91.20;;;;;;5071414;28;20583;-64
2024/01/09 10:29:09;;;;;;;7.05;5.35;;;-2.80;91.00;;;;;;5069034;28;20654;-64
2024/01/09 10:31:38;;;;;;;7.25;5.00;;;-2.70;90.40;;;;;;5072177;28;20260;-64
2024/01/09 10:34:05;;;;;;;10.43;5.80;;;-2.60;90.40;;;;;;5072578;28;20202;-64
2024/01/09 10:36:32;;;;;;;8.63;5.90;;;-2.50;90.90;;;;;;5072636;28;20237;-65
2024/01/09 10:39:04;;;;;;;5.28;4.78;;;-2.40;91.30;;;;;;5073006;28;20222;-64
2024/01/09 10:41:32;;;;;;;5.95;5.32;;;-2.30;91.40;;;;;;5073768;28;20205;-65
2024/01/09 10:44:00;;;;;;;5.82;4.72;;;-2.20;90.90;;;;;;5072900;28;20209;-64
2024/01/09 10:46:31;;;;;;;12.93;6.18;;;-2.00;90.60;;;;;;5073683;28;20281;-65
2024/01/09 10:49:00;;;;;;;7.32;5.05;;;-1.80;90.60;;;;;;5073301;28;20229;-65
2024/01/09 10:51:27;;;;;;;6.55;5.90;;;-1.60;90.30;;;;;;5073342;28;20288;-64
2024/01/09 10:53:56;;;;;;;7.60;6.80;;;-1.50;90.00;;;;;;5073687;28;20587;-65
2024/01/09 10:56:23;;;;;;;6.60;5.25;;;-1.20;90.00;;;;;;5073248;28;20301;-65
2024/01/09 10:58:51;;;;;;;8.95;6.13;;;-0.90;89.60;;;;;;5073406;28;20231;-64
2024/01/09 11:01:18;;;;;;;5.63;5.05;;;-0.70;86.40;;;;;;5073420;28;20206;-65
2024/01/09 11:03:47;;;;;;;6.55;5.80;;;-0.40;84.60;;;;;;5073434;28;20213;-65
2024/01/09 11:06:17;;;;;;;6.22;5.63;;;-0.30;85.80;;;;;;5073438;28;20304;-64
2024/01/09 11:08:49;;;;;;;6.55;5.55;;;-0.10;85.60;;;;;;5072737;28;20222;-65
2024/01/09 11:11:18;;;;;;;8.45;5.15;;;0.10;85.90;;;;;;5072721;28;20201;-64
2024/01/09 11:13:48;;;;;;;7.90;7.07;;;0.20;83.20;;;;;;5073205;28;20213;-65
2024/01/09 11:16:18;;;;;;;6.47;5.75;;;0.30;81.90;;;;;;5073021;28;20695;-65
2024/01/09 11:18:46;;;;;;;8.43;6.10;;;0.40;80.60;;;;;;5072835;28;20236;-65
2024/01/09 11:21:13;;;;;;;8.05;6.47;;;0.40;79.20;;;;;;5072472;28;20714;-65
2024/01/09 11:23:57;;;;;;;8.38;5.90;;;0.50;79.40;;;;;;5073009;28;20296;-65
2024/01/09 11:26:27;;;;;;;8.23;6.38;;;0.60;78.30;;;;;;5073025;28;20211;-65
2024/01/09 11:28:55;;;;;;;6.53;5.70;;;0.60;79.00;;;;;;5072047;28;20264;-65
2024/01/09 11:31:23;;;;;;;11.57;7.32;;;0.70;80.30;;;;;;5072316;28;20277;-65
2024/01/09 11:33:51;;;;;;;7.47;6.00;;;0.70;80.00;;;;;;5072922;28;20297;-66
2024/01/09 11:36:23;;;;;;;7.43;5.90;;;0.60;77.90;;;;;;5072776;28;20567;-65
2024/01/09 11:38:53;;;;;;;6.63;5.53;;;0.50;79.10;;;;;;5072400;28;20217;-65
2024/01/09 11:41:23;;;;;;;7.22;5.90;;;0.50;78.00;;;;;;5071969;28;20206;-64
2024/01/09 11:44:03;;;;;;;8.75;5.32;;;0.40;77.50;;;;;;5072570;28;20202;-64
2024/01/09 11:46:32;;;;;;;6.75;5.85;;;0.40;77.50;;;;;;5072639;28;20212;-65
2024/01/09 11:48:59;;;;;;;8.23;5.47;;;0.30;76.60;;;;;;5072076;28;20232;-65
2024/01/09 11:51:26;;;;;;;8.57;4.68;;;0.30;75.80;;;;;;5072208;28;20645;-64
2024/01/09 11:53:53;;;;;;;6.70;5.07;;;0.20;77.10;;;;;;5072207;28;20301;-65
2024/01/09 11:56:22;;;;;;;7.47;6.68;;;0.20;76.50;;;;;;5072138;28;20216;-64
2024/01/09 11:58:51;;;;;;;6.63;5.68;;;0.10;76.50;;;;;;5072370;28;20287;-65
2024/01/09 12:01:20;;;;;;;7.43;6.65;;;0.20;77.30;;;;;;5072190;28;20213;-65
2024/01/09 12:03:52;;;;;;;7.05;5.30;;;0.20;76.60;;;;;;5072110;28;20213;-65
2024/01/09 12:06:19;;;;;;;7.68;4.85;;;0.20;77.70;;;;;;5072082;28;20290;-65
2024/01/09 12:08:46;;;;;;;7.65;5.00;;;0.20;78.20;;;;;;5071829;28;20247;-65
2024/01/09 12:11:13;;;;;;;5.80;4.65;;;0.30;75.90;;;;;;5071779;28;20220;-65
2024/01/09 12:13:41;;;;;;;5.95;5.22;;;0.40;77.00;;;;;;5072305;28;20210;-64
2024/01/09 12:16:21;;;;;;;7.43;5.18;;;0.50;77.50;;;;;;5072092;28;20205;-65
2024/01/09 12:18:50;;;;;;;7.53;5.50;;;0.70;77.10;;;;;;5071707;28;20719;-65
2024/01/09 12:21:18;;;;;;;5.72;4.93;;;1.00;78.50;;;;;;5071323;28;20217;-65
2024/01/09 12:23:45;;;;;;;6.05;5.07;;;1.40;76.90;;;;;;5070958;28;20216;-66
2024/01/09 12:26:13;;;;;;;7.28;6.45;;;1.70;78.30;;;;;;5071924;28;20205;-65
2024/01/09 12:28:41;;;;;;;8.43;6.38;;;2.20;79.40;;;;;;5071673;28;20228;-66
2024/01/09 12:31:09;;;;;;;8.77;6.53;;;2.60;75.70;;;;;;5071019;28;20311;-65
2024/01/09 12:33:37;;;;;;;7.47;6.78;;;3.00;75.80;;;;;;5071250;28;20208;-65
2024/01/09 12:36:04;;;;;;;5.60;5.07;;;3.40;76.00;;;;;;5068189;28;20225;-65
2024/01/09 12:38:31;;;;;;;7.60;6.45;;;3.80;74.90;;;;;;5067597;28;20229;-65
2024/01/09 12:40:59;;;;;;;8.98;6.13;;;;;;;;;;5064705;28;20190;-65
2024/01/09 12:43:27;;;;;;;10.35;5.82;;;4.50;69.00;;;;;;5070096;28;20193;-66
2024/01/09 12:45:56;;;;;;;7.07;5.35;;;4.90;68.20;;;;;;5070246;28;20288;-65
2024/01/09 12:48:23;;;;;;;7.93;6.30;;;5.30;68.20;;;;;;5069688;28;20248;-66